createdAt,value
2019-03-26T00:00:35.900Z,3.87
2019-03-26T00:03:05.575Z,2.07
2019-03-26T00:05:35.243Z,2.83
2019-03-26T00:08:05.049Z,1.87
2019-03-26T00:10:34.683Z,4.70
2019-03-26T00:13:04.433Z,2.13
2019-03-26T00:15:34.057Z,2.67
2019-03-26T00:18:03.692Z,1.60
2019-03-26T00:20:33.370Z,2.40
2019-03-26T00:23:03.002Z,1.70
2019-03-26T00:25:32.673Z,1.40
2019-03-26T00:28:02.306Z,1.60
2019-03-26T00:30:31.968Z,1.83
2019-03-26T00:33:01.614Z,0.87
2019-03-26T00:35:31.274Z,1.10
2019-03-26T00:38:00.906Z,2.10
2019-03-26T00:40:30.646Z,1.50
2019-03-26T00:43:00.321Z,2.83
2019-03-26T00:45:29.999Z,2.07
2019-03-26T00:47:59.671Z,1.80
2019-03-26T00:50:29.315Z,1.97
2019-03-26T00:52:58.984Z,3.30
2019-03-26T00:55:28.670Z,2.27
2019-03-26T00:58:01.402Z,1.20
2019-03-26T01:00:43.624Z,1.70
2019-03-26T01:03:13.704Z,1.00
2019-03-26T01:05:43.805Z,1.50
2019-03-26T01:08:13.928Z,1.07
2019-03-26T01:10:43.567Z,2.10
2019-03-26T01:13:13.313Z,1.80
2019-03-26T01:15:42.987Z,1.13
2019-03-26T01:18:12.873Z,2.30
2019-03-26T01:20:42.545Z,1.43
2019-03-26T01:23:12.190Z,1.63
2019-03-26T01:25:41.949Z,0.93
2019-03-26T01:28:11.745Z,1.17
2019-03-26T01:30:41.492Z,1.90
2019-03-26T01:33:11.133Z,3.23
2019-03-26T01:35:41.461Z,1.33
2019-03-26T01:38:11.101Z,1.87
2019-03-26T01:40:40.773Z,1.07
2019-03-26T01:43:10.484Z,2.00
2019-03-26T01:45:40.152Z,0.83
2019-03-26T01:48:09.787Z,1.67
2019-03-26T01:50:39.457Z,6.13
2019-03-26T01:53:09.131Z,3.33
2019-03-26T01:55:38.789Z,4.10
2019-03-26T01:58:08.460Z,5.23
2019-03-26T02:00:38.435Z,3.30
2019-03-26T02:03:08.105Z,1.93
2019-03-26T02:05:37.737Z,2.70
2019-03-26T02:08:07.420Z,1.77
2019-03-26T02:10:37.052Z,1.80
2019-03-26T02:13:06.761Z,3.83
2019-03-26T02:15:36.837Z,3.00
2019-03-26T02:18:06.693Z,1.70
2019-03-26T02:20:36.543Z,1.60
2019-03-26T02:23:06.354Z,1.63
2019-03-26T02:25:35.969Z,2.37
2019-03-26T02:28:05.558Z,2.17
2019-03-26T02:30:35.307Z,4.67
2019-03-26T02:33:04.913Z,1.37
2019-03-26T02:35:34.516Z,1.73
2019-03-26T02:38:04.473Z,0.60
2019-03-26T02:40:34.057Z,0.83
2019-03-26T02:43:03.680Z,1.67
2019-03-26T02:45:33.382Z,1.03
2019-03-26T02:48:02.965Z,2.13
2019-03-26T02:50:32.591Z,2.37
2019-03-26T02:53:02.338Z,0.87
2019-03-26T02:55:31.986Z,4.00
2019-03-26T02:58:01.600Z,1.80
2019-03-26T03:00:31.219Z,1.20
2019-03-26T03:03:00.835Z,1.83
2019-03-26T03:05:35.545Z,2.13
2019-03-26T03:08:01.830Z,1.20
2019-03-26T03:10:31.482Z,1.07
2019-03-26T03:13:01.103Z,2.73
2019-03-26T03:15:30.697Z,0.80
2019-03-26T03:18:00.293Z,1.07
2019-03-26T03:20:29.913Z,1.60
2019-03-26T03:22:59.595Z,3.10
2019-03-26T03:25:29.223Z,0.77
2019-03-26T03:27:58.800Z,3.90
2019-03-26T03:30:28.418Z,1.57
2019-03-26T03:32:57.999Z,1.07
2019-03-26T03:35:27.773Z,0.80
2019-03-26T03:37:57.452Z,0.83
2019-03-26T03:40:27.053Z,0.87
2019-03-26T03:42:56.633Z,0.80
2019-03-26T03:45:30.471Z,1.10
2019-03-26T03:48:01.970Z,1.00
2019-03-26T03:50:32.774Z,6.33
2019-03-26T03:53:02.896Z,1.20
2019-03-26T03:55:33.589Z,1.23
2019-03-26T03:58:05.608Z,1.03
2019-03-26T04:00:40.100Z,2.00
2019-03-26T04:03:10.512Z,0.77
2019-03-26T04:05:40.343Z,2.27
2019-03-26T04:08:10.098Z,2.67
2019-03-26T04:10:39.671Z,1.20
2019-03-26T04:13:09.685Z,4.93
2019-03-26T04:15:39.536Z,1.90
2019-03-26T04:18:09.221Z,2.03
2019-03-26T04:20:38.807Z,2.20
2019-03-26T04:23:08.423Z,2.97
2019-03-26T04:25:38.043Z,1.83
2019-03-26T04:28:07.666Z,1.87
2019-03-26T04:30:37.482Z,4.20
2019-03-26T04:33:07.253Z,1.57
2019-03-26T04:35:36.996Z,1.00
2019-03-26T04:38:06.724Z,1.63
2019-03-26T04:40:36.338Z,3.37
2019-03-26T04:43:06.066Z,1.20
2019-03-26T04:45:35.697Z,2.53
2019-03-26T04:48:05.529Z,3.73
2019-03-26T04:50:35.237Z,1.83
2019-03-26T04:53:04.926Z,1.87
2019-03-26T04:55:34.813Z,3.03
2019-03-26T04:58:04.978Z,10.73
2019-03-26T05:00:34.590Z,10.97
2019-03-26T05:03:04.249Z,4.33
2019-03-26T05:05:33.917Z,3.97
2019-03-26T05:08:03.594Z,5.13
2019-03-26T05:10:33.204Z,4.00
2019-03-26T05:13:02.828Z,5.53
2019-03-26T05:15:32.417Z,6.27
2019-03-26T05:18:02.047Z,7.13
2019-03-26T05:20:31.637Z,2.53
2019-03-26T05:23:01.345Z,3.07
2019-03-26T05:25:30.971Z,7.47
2019-03-26T05:28:00.556Z,15.83
2019-03-26T05:30:32.998Z,6.13
2019-03-26T05:33:01.513Z,3.40
2019-03-26T05:35:31.098Z,8.07
2019-03-26T05:38:00.684Z,3.50
2019-03-26T05:40:30.319Z,6.03
2019-03-26T05:42:59.939Z,5.43
2019-03-26T05:45:29.616Z,5.67
2019-03-26T05:47:59.230Z,3.63
2019-03-26T05:50:28.844Z,3.97
2019-03-26T05:52:58.428Z,5.50
2019-03-26T05:55:28.030Z,3.73
2019-03-26T05:57:57.659Z,3.80
2019-03-26T06:00:27.688Z,8.10
2019-03-26T06:02:57.297Z,4.37
2019-03-26T06:05:26.899Z,8.20
2019-03-26T06:07:56.518Z,6.17
2019-03-26T06:10:26.137Z,8.73
2019-03-26T06:12:55.740Z,8.40
2019-03-26T06:15:25.542Z,9.70
2019-03-26T06:17:57.556Z,11.10
2019-03-26T06:20:26.495Z,14.07
2019-03-26T06:22:56.291Z,11.23
2019-03-26T06:25:25.907Z,11.40
2019-03-26T06:27:55.498Z,7.47
2019-03-26T06:30:25.126Z,4.33
2019-03-26T06:32:54.704Z,3.33
2019-03-26T06:35:24.297Z,3.20
2019-03-26T06:37:53.899Z,4.20
2019-03-26T06:40:23.512Z,7.57
2019-03-26T06:42:53.126Z,4.00
2019-03-26T06:45:22.781Z,5.17
2019-03-26T06:47:52.393Z,5.13
2019-03-26T06:50:21.978Z,2.87
2019-03-26T06:52:51.592Z,11.17
2019-03-26T06:55:21.176Z,3.67
2019-03-26T06:57:50.793Z,6.10
2019-03-26T07:00:24.965Z,2.70
2019-03-26T07:02:54.581Z,1.73
2019-03-26T07:05:24.189Z,1.97
2019-03-26T07:07:53.849Z,2.00
2019-03-26T07:10:27.323Z,1.90
2019-03-26T07:12:58.012Z,1.93
2019-03-26T07:15:27.668Z,1.93
2019-03-26T07:17:57.285Z,2.33
2019-03-26T07:20:26.895Z,3.07
2019-03-26T07:22:56.507Z,2.10
2019-03-26T07:25:26.194Z,1.97
2019-03-26T07:27:55.949Z,2.10
2019-03-26T07:30:40.108Z,5.17
2019-03-26T07:33:10.409Z,2.43
2019-03-26T07:35:40.089Z,1.90
2019-03-26T07:38:09.756Z,4.47
2019-03-26T07:40:39.443Z,6.07
2019-03-26T07:43:09.107Z,4.23
2019-03-26T07:45:38.870Z,1.97
2019-03-26T07:48:08.531Z,5.50
2019-03-26T07:50:38.151Z,2.37
2019-03-26T07:53:07.765Z,1.50
2019-03-26T07:55:37.363Z,2.20
2019-03-26T07:58:07.059Z,1.57
2019-03-26T08:00:38.859Z,3.13
2019-03-26T08:03:09.079Z,3.77
2019-03-26T08:05:38.739Z,2.03
2019-03-26T08:08:08.400Z,1.33
2019-03-26T08:10:38.102Z,1.27
2019-03-26T08:13:07.726Z,2.77
2019-03-26T08:15:37.389Z,1.20
2019-03-26T08:18:07.101Z,2.43
2019-03-26T08:20:36.731Z,1.93
2019-03-26T08:23:06.518Z,1.20
2019-03-26T08:25:36.288Z,1.63
2019-03-26T08:28:06.049Z,1.40
2019-03-26T08:30:35.775Z,1.60
2019-03-26T08:33:05.398Z,4.00
2019-03-26T08:35:35.062Z,1.83
2019-03-26T08:38:12.570Z,4.53
2019-03-26T08:40:36.026Z,1.73
2019-03-26T08:43:05.618Z,1.47
2019-03-26T08:45:35.233Z,1.40
2019-03-26T08:48:05.424Z,2.77
2019-03-26T08:50:35.050Z,1.50
2019-03-26T08:55:48.448Z,2.07
2019-03-26T08:58:18.084Z,1.20
2019-03-26T09:00:47.677Z,1.17
2019-03-26T09:03:17.390Z,1.20
2019-03-26T09:05:46.982Z,1.47
2019-03-26T09:08:25.392Z,2.33
2019-03-26T09:10:51.865Z,1.30
2019-03-26T09:13:19.282Z,2.20
2019-03-26T09:15:48.905Z,3.47
2019-03-26T09:18:18.562Z,1.57
2019-03-26T09:20:48.227Z,1.57
2019-03-26T09:23:17.905Z,0.80
2019-03-26T09:25:47.530Z,2.50
2019-03-26T09:28:17.155Z,1.50
2019-03-26T09:30:47.231Z,2.67
2019-03-26T09:33:16.854Z,8.03
2019-03-26T09:35:46.476Z,1.73
2019-03-26T09:38:16.177Z,4.70
2019-03-26T09:40:45.786Z,2.67
2019-03-26T09:43:15.400Z,1.87
2019-03-26T09:45:45.018Z,1.20
2019-03-26T09:48:14.607Z,2.27
2019-03-26T09:50:44.236Z,1.63
2019-03-26T09:53:13.827Z,1.50
2019-03-26T09:55:43.609Z,2.93
2019-03-26T09:58:13.222Z,1.53
2019-03-26T10:00:42.961Z,2.70
2019-03-26T10:03:12.687Z,5.40
2019-03-26T10:05:42.312Z,1.27
2019-03-26T10:08:11.942Z,1.77
2019-03-26T10:10:41.611Z,1.67
2019-03-26T10:13:11.202Z,1.60
2019-03-26T10:15:40.825Z,1.57
2019-03-26T10:18:10.418Z,2.23
2019-03-26T10:20:40.037Z,7.80
2019-03-26T10:23:09.837Z,2.40
2019-03-26T10:25:39.431Z,1.57
2019-03-26T10:28:09.115Z,2.47
2019-03-26T10:30:40.316Z,1.90
2019-03-26T10:33:11.134Z,1.97
2019-03-26T10:35:40.894Z,2.23
2019-03-26T10:38:10.628Z,1.80
2019-03-26T10:40:40.841Z,2.47
2019-03-26T10:43:10.923Z,4.50
2019-03-26T10:45:40.522Z,2.97
2019-03-26T10:48:10.279Z,1.53
2019-03-26T10:50:40.119Z,1.63
2019-03-26T10:53:09.705Z,1.70
2019-03-26T10:55:39.325Z,2.87
2019-03-26T10:58:08.945Z,1.50
2019-03-26T11:00:38.708Z,3.50
2019-03-26T11:03:08.312Z,1.80
2019-03-26T11:05:37.933Z,1.70
2019-03-26T11:08:07.595Z,1.87
2019-03-26T11:10:37.362Z,1.83
2019-03-26T11:13:06.976Z,2.10
2019-03-26T11:15:36.635Z,2.50
2019-03-26T11:18:06.320Z,1.80
2019-03-26T11:20:35.920Z,5.00
2019-03-26T11:23:05.599Z,1.40
2019-03-26T11:25:35.360Z,1.83
2019-03-26T11:28:05.024Z,1.13
2019-03-26T11:30:34.718Z,1.43
2019-03-26T11:33:04.343Z,3.07
2019-03-26T11:35:33.964Z,2.13
2019-03-26T11:38:03.700Z,2.67
2019-03-26T11:40:33.524Z,2.23
2019-03-26T11:43:03.120Z,4.80
2019-03-26T11:45:32.738Z,3.07
2019-03-26T11:48:02.399Z,3.10
2019-03-26T11:50:32.022Z,2.57
2019-03-26T11:53:01.654Z,4.27
2019-03-26T11:55:31.325Z,3.67
2019-03-26T11:58:00.958Z,1.53
2019-03-26T12:00:32.193Z,4.13
2019-03-26T12:03:01.888Z,4.90
2019-03-26T12:05:31.477Z,2.03
2019-03-26T12:08:01.159Z,2.50
2019-03-26T12:10:30.823Z,2.27
2019-03-26T12:13:00.506Z,1.27
2019-03-26T12:15:30.191Z,1.77
2019-03-26T12:17:59.877Z,1.87
2019-03-26T12:20:29.498Z,3.83
2019-03-26T12:22:59.091Z,3.20
2019-03-26T12:25:28.728Z,2.63
2019-03-26T12:27:58.316Z,4.87
2019-03-26T12:30:36.851Z,1.37
2019-03-26T12:33:07.484Z,1.60
2019-03-26T12:35:37.481Z,4.57
2019-03-26T12:38:16.873Z,2.87
2019-03-26T12:40:47.127Z,5.23
2019-03-26T12:43:17.260Z,2.13
2019-03-26T12:45:46.856Z,1.57
2019-03-26T12:48:16.613Z,4.83
2019-03-26T12:50:46.235Z,1.73
2019-03-26T12:53:17.445Z,1.50
2019-03-26T12:55:47.140Z,2.20
2019-03-26T12:58:16.798Z,2.70
2019-03-26T13:00:46.739Z,1.20
2019-03-26T13:03:16.431Z,1.93
2019-03-26T13:05:46.032Z,3.23
2019-03-26T13:08:15.723Z,3.80
2019-03-26T13:10:53.237Z,2.70
2019-03-26T13:13:16.732Z,2.00
2019-03-26T13:15:46.322Z,2.73
2019-03-26T13:18:16.012Z,3.50
2019-03-26T13:20:45.649Z,6.70
2019-03-26T13:23:15.412Z,3.70
2019-03-26T13:25:45.142Z,5.40
2019-03-26T13:28:14.731Z,1.73
2019-03-26T13:30:44.442Z,2.93
2019-03-26T13:33:14.045Z,6.23
2019-03-26T13:35:43.686Z,2.03
2019-03-26T13:38:13.278Z,1.90
2019-03-26T13:40:42.870Z,2.50
2019-03-26T13:43:12.497Z,3.33
2019-03-26T13:45:42.377Z,2.07
2019-03-26T13:48:12.014Z,2.37
2019-03-26T13:50:41.643Z,1.53
2019-03-26T13:53:11.410Z,2.73
2019-03-26T13:55:41.163Z,2.07
2019-03-26T13:58:10.843Z,3.13
2019-03-26T14:00:41.241Z,1.30
2019-03-26T14:03:11.187Z,2.20
2019-03-26T14:05:40.843Z,1.90
2019-03-26T14:08:10.590Z,3.37
2019-03-26T14:10:41.563Z,1.27
2019-03-26T14:13:11.377Z,2.07
2019-03-26T14:15:41.268Z,1.30
2019-03-26T14:18:10.857Z,1.63
2019-03-26T14:20:40.483Z,2.20
2019-03-26T14:23:10.145Z,1.57
2019-03-26T14:25:39.842Z,2.30
2019-03-26T14:28:09.436Z,4.30
2019-03-26T14:30:42.140Z,3.00
2019-03-26T14:33:12.012Z,3.63
2019-03-26T14:35:41.676Z,2.70
2019-03-26T14:38:11.272Z,3.30
2019-03-26T14:40:53.512Z,2.60
2019-03-26T14:43:12.507Z,1.60
2019-03-26T14:45:42.588Z,2.27
2019-03-26T14:48:12.273Z,4.67
2019-03-26T14:50:41.867Z,4.03
2019-03-26T14:53:11.489Z,3.80
2019-03-26T14:55:41.186Z,2.53
2019-03-26T14:58:10.858Z,2.10
2019-03-26T15:00:40.545Z,1.63
2019-03-26T15:03:10.241Z,2.53
2019-03-26T15:05:39.868Z,2.40
2019-03-26T15:08:09.770Z,3.77
2019-03-26T15:10:39.391Z,1.67
2019-03-26T15:13:09.010Z,3.00
2019-03-26T15:15:38.624Z,1.43
2019-03-26T15:18:08.364Z,2.53
2019-03-26T15:20:38.261Z,2.67
2019-03-26T15:23:07.836Z,4.77
2019-03-26T15:25:37.451Z,3.33
2019-03-26T15:28:07.075Z,7.10
2019-03-26T15:30:36.665Z,4.17
2019-03-26T15:33:06.955Z,3.47
2019-03-26T15:35:36.576Z,1.70
2019-03-26T15:38:06.308Z,2.80
2019-03-26T15:40:35.948Z,4.40
2019-03-26T15:43:05.679Z,3.63
2019-03-26T15:45:35.344Z,4.23
2019-03-26T15:48:05.093Z,6.23
2019-03-26T15:50:39.997Z,4.20
2019-03-26T15:53:09.789Z,8.47
2019-03-26T15:55:39.993Z,5.30
2019-03-26T15:58:09.749Z,4.37
2019-03-26T16:00:39.978Z,3.27
2019-03-26T16:03:09.665Z,6.33
2019-03-26T16:05:39.442Z,4.63
2019-03-26T16:08:09.054Z,4.07
2019-03-26T16:10:38.794Z,6.17
2019-03-26T16:13:08.555Z,5.30
2019-03-26T16:15:44.097Z,4.93
2019-03-26T16:18:09.525Z,4.03
2019-03-26T16:20:39.128Z,6.17
2019-03-26T16:23:08.752Z,5.00
2019-03-26T16:25:38.411Z,4.33
2019-03-26T16:28:08.029Z,5.13
2019-03-26T16:30:37.615Z,4.00
2019-03-26T16:33:07.299Z,4.10
2019-03-26T16:35:39.938Z,5.33
2019-03-26T16:38:08.316Z,4.87
2019-03-26T16:40:37.900Z,4.60
2019-03-26T16:43:07.587Z,4.87
2019-03-26T16:45:37.204Z,4.60
2019-03-26T16:48:06.790Z,4.73
2019-03-26T16:50:36.402Z,8.53
2019-03-26T16:53:05.983Z,6.97
2019-03-26T16:55:35.595Z,6.83
2019-03-26T16:58:05.212Z,6.37
2019-03-26T17:00:35.207Z,11.87
2019-03-26T17:03:05.132Z,4.97
2019-03-26T17:05:34.781Z,5.90
2019-03-26T17:08:05.435Z,6.37
2019-03-26T17:10:35.198Z,5.67
2019-03-26T17:13:04.871Z,6.10
2019-03-26T17:15:34.489Z,5.87
2019-03-26T17:18:04.162Z,5.67
2019-03-26T17:20:33.767Z,6.50
2019-03-26T17:23:03.354Z,5.00
2019-03-26T17:25:32.968Z,5.70
2019-03-26T17:28:02.553Z,12.13
2019-03-26T17:30:32.745Z,11.40
2019-03-26T17:33:02.374Z,13.73
2019-03-26T17:35:31.963Z,11.10
2019-03-26T17:38:01.553Z,9.63
2019-03-26T17:40:31.177Z,10.57
2019-03-26T17:43:00.795Z,10.77
2019-03-26T17:45:30.393Z,10.20
2019-03-26T17:48:00.011Z,12.20
2019-03-26T17:50:29.602Z,8.37
2019-03-26T17:52:59.219Z,11.50
2019-03-26T17:55:28.829Z,8.17
2019-03-26T17:57:58.426Z,8.10
2019-03-26T18:00:44.183Z,14.87
2019-03-26T18:03:25.576Z,9.27
2019-03-26T18:05:45.312Z,8.50
2019-03-26T18:08:15.001Z,7.07
2019-03-26T18:10:44.614Z,8.10
2019-03-26T18:13:14.268Z,9.37
2019-03-26T18:15:44.105Z,6.40
2019-03-26T18:18:13.777Z,7.10
2019-03-26T18:20:43.416Z,7.40
2019-03-26T18:23:13.163Z,6.83
2019-03-26T18:25:42.772Z,5.40
2019-03-26T18:28:12.360Z,11.20
2019-03-26T18:30:42.103Z,7.60
2019-03-26T18:33:11.760Z,9.37
2019-03-26T18:35:41.441Z,13.63
2019-03-26T18:38:11.102Z,15.47
2019-03-26T18:40:41.397Z,15.57
2019-03-26T18:43:10.976Z,9.43
2019-03-26T18:45:40.599Z,11.13
2019-03-26T18:48:10.214Z,12.60
2019-03-26T18:50:39.901Z,9.63
2019-03-26T18:53:09.485Z,9.70
2019-03-26T18:55:39.200Z,11.70
2019-03-26T18:58:08.829Z,12.00
2019-03-26T19:00:39.728Z,11.17
2019-03-26T19:03:09.849Z,13.67
2019-03-26T19:05:39.504Z,8.87
2019-03-26T19:08:09.357Z,12.47
2019-03-26T19:10:39.082Z,9.87
2019-03-26T19:13:19.316Z,15.73
2019-03-26T19:15:40.085Z,13.43
2019-03-26T19:18:09.843Z,18.00
2019-03-26T19:20:39.502Z,15.23
2019-03-26T19:23:09.187Z,16.57
2019-03-26T19:25:38.875Z,17.07
2019-03-26T19:28:08.462Z,17.97
2019-03-26T19:30:38.077Z,12.67
2019-03-26T19:33:07.670Z,16.33
2019-03-26T19:35:37.291Z,16.50
2019-03-26T19:38:06.951Z,18.83
2019-03-26T19:40:36.558Z,14.63
2019-03-26T19:43:11.173Z,17.80
2019-03-26T19:45:38.064Z,14.87
2019-03-26T19:48:07.692Z,16.70
2019-03-26T19:50:37.279Z,14.87
2019-03-26T19:53:06.897Z,11.77
2019-03-26T19:55:36.557Z,22.17
2019-03-26T19:58:06.247Z,15.93
2019-03-26T20:00:35.835Z,20.20
2019-03-26T20:03:05.529Z,11.23
2019-03-26T20:05:35.634Z,12.90
2019-03-26T20:08:05.409Z,18.90
2019-03-26T20:10:35.116Z,12.50
2019-03-26T20:13:04.773Z,17.30
2019-03-26T20:15:34.434Z,16.30
2019-03-26T20:18:04.021Z,23.87
2019-03-26T20:20:33.654Z,18.37
2019-03-26T20:23:03.240Z,14.30
2019-03-26T20:25:32.827Z,10.70
2019-03-26T20:28:02.450Z,13.47
2019-03-26T20:30:32.066Z,13.73
2019-03-26T20:33:01.803Z,10.40
2019-03-26T20:35:31.599Z,26.93
2019-03-26T20:38:01.186Z,22.03
2019-03-26T20:40:30.783Z,26.10
2019-03-26T20:43:00.393Z,13.40
2019-03-26T20:45:29.990Z,10.97
2019-03-26T20:48:01.473Z,13.93
2019-03-26T20:50:31.090Z,11.53
2019-03-26T20:53:00.706Z,10.23
2019-03-26T20:55:35.368Z,8.60
2019-03-26T20:58:05.392Z,9.87
2019-03-26T21:00:37.312Z,10.60
2019-03-26T21:03:07.229Z,7.83
2019-03-26T21:05:37.052Z,9.27
2019-03-26T21:08:07.106Z,10.57
2019-03-26T21:10:37.002Z,9.43
2019-03-26T21:13:06.790Z,10.17
2019-03-26T21:15:37.389Z,11.57
2019-03-26T21:18:07.047Z,11.83
2019-03-26T21:20:36.797Z,9.97
2019-03-26T21:23:06.558Z,7.77
2019-03-26T21:25:36.153Z,8.20
2019-03-26T21:28:05.910Z,11.07
2019-03-26T21:30:35.494Z,12.97
2019-03-26T21:33:05.250Z,8.13
2019-03-26T21:35:34.832Z,9.13
2019-03-26T21:38:04.976Z,6.20
2019-03-26T21:40:34.651Z,7.40
2019-03-26T21:43:04.342Z,8.33
2019-03-26T21:45:38.753Z,9.97
2019-03-26T21:48:09.065Z,9.43
2019-03-26T21:50:38.817Z,11.07
2019-03-26T21:53:08.646Z,15.00
2019-03-26T21:55:38.304Z,11.13
2019-03-26T21:58:07.917Z,11.80
2019-03-26T22:00:37.509Z,30.80
2019-03-26T22:03:07.101Z,19.97
2019-03-26T22:05:36.716Z,11.73
2019-03-26T22:08:06.366Z,14.40
2019-03-26T22:10:36.049Z,7.47
2019-03-26T22:13:05.705Z,10.37
2019-03-26T22:15:35.321Z,11.33
2019-03-26T22:18:05.046Z,14.23
2019-03-26T22:20:34.661Z,17.57
2019-03-26T22:23:04.410Z,12.80
2019-03-26T22:25:34.156Z,9.80
2019-03-26T22:28:03.753Z,13.23
2019-03-26T22:30:33.342Z,10.20
2019-03-26T22:33:02.969Z,8.43
2019-03-26T22:35:32.558Z,10.83
2019-03-26T22:38:02.139Z,8.73
2019-03-26T22:40:31.750Z,8.27
2019-03-26T22:43:01.337Z,13.23
2019-03-26T22:45:31.031Z,15.90
2019-03-26T22:48:00.646Z,19.63
2019-03-26T22:50:30.359Z,21.17
2019-03-26T22:52:59.981Z,20.73
2019-03-26T22:55:29.561Z,12.30
2019-03-26T22:57:59.177Z,10.10
2019-03-26T23:00:31.849Z,12.53
2019-03-26T23:03:01.570Z,8.67
2019-03-26T23:05:31.116Z,12.07
2019-03-26T23:08:00.744Z,14.40
2019-03-26T23:10:30.329Z,16.40
2019-03-26T23:12:59.918Z,11.93
2019-03-26T23:15:29.769Z,22.00
2019-03-26T23:17:59.429Z,14.13
2019-03-26T23:20:29.037Z,9.27
2019-03-26T23:22:58.648Z,11.47
2019-03-26T23:25:28.228Z,9.67
2019-03-26T23:27:57.996Z,8.20
2019-03-26T23:30:27.738Z,10.87
2019-03-26T23:32:57.405Z,9.13
2019-03-26T23:35:27.037Z,8.27
2019-03-26T23:37:56.710Z,19.93
2019-03-26T23:40:26.342Z,13.13
2019-03-26T23:42:56.015Z,16.73
2019-03-26T23:45:25.650Z,11.53
2019-03-26T23:47:55.324Z,17.73
2019-03-26T23:50:24.971Z,15.30
2019-03-26T23:52:54.647Z,11.33
2019-03-26T23:55:24.285Z,11.87
2019-03-26T23:57:53.959Z,11.97
